sensor_id;sensor_type;location;lat;lon;timestamp;P1;durP1;ratioP1;P2;durP2;ratioP2
58472;SDS011;44775;51.564;5.460;2022-10-30T00:02:13;20.67;;;9.32;;
58472;SDS011;44775;51.564;5.460;2022-10-30T00:04:39;18.95;;;9.77;;
58472;SDS011;44775;51.564;5.460;2022-10-30T00:07:04;21.00;;;10.23;;
58472;SDS011;44775;51.564;5.460;2022-10-30T00:09:30;22.60;;;9.40;;
58472;SDS011;44775;51.564;5.460;2022-10-30T00:11:55;21.15;;;8.98;;
58472;SDS011;44775;51.564;5.460;2022-10-30T00:14:21;18.33;;;8.90;;
58472;SDS011;44775;51.564;5.460;2022-10-30T00:16:46;17.42;;;8.30;;
58472;SDS011;44775;51.564;5.460;2022-10-30T00:19:11;16.08;;;8.90;;
58472;SDS011;44775;51.564;5.460;2022-10-30T00:21:37;16.23;;;8.57;;
58472;SDS011;44775;51.564;5.460;2022-10-30T00:24:02;20.95;;;9.32;;
58472;SDS011;44775;51.564;5.460;2022-10-30T00:26:28;19.98;;;9.65;;
58472;SDS011;44775;51.564;5.460;2022-10-30T00:28:54;19.85;;;9.18;;
58472;SDS011;44775;51.564;5.460;2022-10-30T00:31:20;20.40;;;9.45;;
58472;SDS011;44775;51.564;5.460;2022-10-30T00:33:50;25.13;;;10.02;;
58472;SDS011;44775;51.564;5.460;2022-10-30T00:36:17;22.60;;;9.60;;
58472;SDS011;44775;51.564;5.460;2022-10-30T00:38:42;20.95;;;9.60;;
58472;SDS011;44775;51.564;5.460;2022-10-30T00:41:13;24.15;;;9.73;;
58472;SDS011;44775;51.564;5.460;2022-10-30T00:43:42;21.20;;;9.25;;
58472;SDS011;44775;51.564;5.460;2022-10-30T00:48:53;23.67;;;9.45;;
58472;SDS011;44775;51.564;5.460;2022-10-30T00:51:22;23.08;;;9.43;;
58472;SDS011;44775;51.564;5.460;2022-10-30T00:53:48;24.65;;;9.52;;
58472;SDS011;44775;51.564;5.460;2022-10-30T00:56:16;17.00;;;8.57;;
58472;SDS011;44775;51.564;5.460;2022-10-30T00:58:50;19.08;;;9.18;;
58472;SDS011;44775;51.564;5.460;2022-10-30T01:01:21;19.88;;;9.32;;
58472;SDS011;44775;51.564;5.460;2022-10-30T01:03:51;21.77;;;9.55;;
58472;SDS011;44775;51.564;5.460;2022-10-30T01:06:20;18.52;;;8.93;;
58472;SDS011;44775;51.564;5.460;2022-10-30T01:08:47;18.50;;;9.50;;
58472;SDS011;44775;51.564;5.460;2022-10-30T01:11:14;18.08;;;8.43;;
58472;SDS011;44775;51.564;5.460;2022-10-30T01:13:40;17.38;;;8.93;;
58472;SDS011;44775;51.564;5.460;2022-10-30T01:16:16;16.38;;;8.60;;
58472;SDS011;44775;51.564;5.460;2022-10-30T01:18:58;22.52;;;9.20;;
58472;SDS011;44775;51.564;5.460;2022-10-30T01:24:20;18.05;;;9.13;;
58472;SDS011;44775;51.564;5.460;2022-10-30T01:37:54;17.25;;;9.55;;
58472;SDS011;44775;51.564;5.460;2022-10-30T01:40:36;19.83;;;9.45;;
58472;SDS011;44775;51.564;5.460;2022-10-30T01:43:02;19.83;;;9.68;;
58472;SDS011;44775;51.564;5.460;2022-10-30T01:48:39;20.00;;;9.85;;
58472;SDS011;44775;51.564;5.460;2022-10-30T01:56:41;20.13;;;10.13;;
58472;SDS011;44775;51.564;5.460;2022-10-30T01:59:18;22.85;;;10.13;;
58472;SDS011;44775;51.564;5.460;2022-10-30T02:01:49;20.13;;;10.70;;
58472;SDS011;44775;51.564;5.460;2022-10-30T02:04:15;18.77;;;10.15;;
58472;SDS011;44775;51.564;5.460;2022-10-30T02:06:40;19.45;;;10.80;;
58472;SDS011;44775;51.564;5.460;2022-10-30T02:09:06;24.65;;;11.23;;
58472;SDS011;44775;51.564;5.460;2022-10-30T02:11:32;22.90;;;10.80;;
58472;SDS011;44775;51.564;5.460;2022-10-30T02:14:00;20.73;;;11.40;;
58472;SDS011;44775;51.564;5.460;2022-10-30T02:16:28;27.30;;;10.73;;
58472;SDS011;44775;51.564;5.460;2022-10-30T02:18:53;24.27;;;11.30;;
58472;SDS011;44775;51.564;5.460;2022-10-30T02:21:19;20.38;;;10.82;;
58472;SDS011;44775;51.564;5.460;2022-10-30T02:23:45;24.90;;;10.98;;
58472;SDS011;44775;51.564;5.460;2022-10-30T02:26:10;19.77;;;10.70;;
58472;SDS011;44775;51.564;5.460;2022-10-30T02:28:35;19.55;;;10.40;;
58472;SDS011;44775;51.564;5.460;2022-10-30T02:31:01;19.35;;;10.80;;
58472;SDS011;44775;51.564;5.460;2022-10-30T02:33:26;22.33;;;11.38;;
58472;SDS011;44775;51.564;5.460;2022-10-30T02:35:52;18.40;;;10.07;;
58472;SDS011;44775;51.564;5.460;2022-10-30T02:38:18;21.55;;;11.90;;
58472;SDS011;44775;51.564;5.460;2022-10-30T02:40:44;19.45;;;11.00;;
58472;SDS011;44775;51.564;5.460;2022-10-30T02:43:09;19.70;;;10.60;;
58472;SDS011;44775;51.564;5.460;2022-10-30T02:45:35;22.02;;;10.45;;
58472;SDS011;44775;51.564;5.460;2022-10-30T02:48:00;20.35;;;10.90;;
58472;SDS011;44775;51.564;5.460;2022-10-30T02:50:26;21.70;;;11.77;;
58472;SDS011;44775;51.564;5.460;2022-10-30T02:52:51;22.60;;;11.40;;
58472;SDS011;44775;51.564;5.460;2022-10-30T02:55:17;25.35;;;10.90;;
58472;SDS011;44775;51.564;5.460;2022-10-30T02:57:43;18.10;;;10.60;;
58472;SDS011;44775;51.564;5.460;2022-10-30T03:00:08;26.08;;;11.13;;
58472;SDS011;44775;51.564;5.460;2022-10-30T03:02:35;21.42;;;10.57;;
58472;SDS011;44775;51.564;5.460;2022-10-30T03:05:00;26.08;;;11.43;;
58472;SDS011;44775;51.564;5.460;2022-10-30T03:07:26;23.77;;;10.43;;
58472;SDS011;44775;51.564;5.460;2022-10-30T03:09:51;22.02;;;10.52;;
58472;SDS011;44775;51.564;5.460;2022-10-30T03:12:18;18.98;;;10.80;;
58472;SDS011;44775;51.564;5.460;2022-10-30T03:14:44;20.30;;;10.93;;
58472;SDS011;44775;51.564;5.460;2022-10-30T03:17:09;20.58;;;10.65;;
58472;SDS011;44775;51.564;5.460;2022-10-30T03:19:35;18.20;;;10.50;;
58472;SDS011;44775;51.564;5.460;2022-10-30T03:22:00;18.70;;;10.60;;
58472;SDS011;44775;51.564;5.460;2022-10-30T03:24:26;23.15;;;11.07;;
58472;SDS011;44775;51.564;5.460;2022-10-30T03:26:51;25.20;;;10.50;;
58472;SDS011;44775;51.564;5.460;2022-10-30T03:29:17;20.92;;;11.52;;
58472;SDS011;44775;51.564;5.460;2022-10-30T03:31:42;22.77;;;11.02;;
58472;SDS011;44775;51.564;5.460;2022-10-30T03:34:07;24.15;;;10.80;;
58472;SDS011;44775;51.564;5.460;2022-10-30T03:36:33;22.27;;;10.98;;
58472;SDS011;44775;51.564;5.460;2022-10-30T03:38:59;21.40;;;10.63;;
58472;SDS011;44775;51.564;5.460;2022-10-30T03:41:24;25.52;;;10.68;;
58472;SDS011;44775;51.564;5.460;2022-10-30T03:43:50;24.05;;;11.57;;
58472;SDS011;44775;51.564;5.460;2022-10-30T03:46:15;19.42;;;10.50;;
58472;SDS011;44775;51.564;5.460;2022-10-30T03:48:41;22.10;;;11.32;;
58472;SDS011;44775;51.564;5.460;2022-10-30T03:51:06;20.80;;;10.75;;
58472;SDS011;44775;51.564;5.460;2022-10-30T03:53:31;21.77;;;10.50;;
58472;SDS011;44775;51.564;5.460;2022-10-30T03:55:58;22.10;;;11.43;;
58472;SDS011;44775;51.564;5.460;2022-10-30T03:58:25;18.58;;;10.75;;
58472;SDS011;44775;51.564;5.460;2022-10-30T04:00:51;25.70;;;11.45;;
58472;SDS011;44775;51.564;5.460;2022-10-30T04:03:17;22.50;;;11.27;;
58472;SDS011;44775;51.564;5.460;2022-10-30T04:05:43;22.73;;;11.20;;
58472;SDS011;44775;51.564;5.460;2022-10-30T04:08:12;18.15;;;10.95;;
58472;SDS011;44775;51.564;5.460;2022-10-30T04:10:41;29.35;;;12.18;;
58472;SDS011;44775;51.564;5.460;2022-10-30T04:13:08;19.15;;;10.82;;
58472;SDS011;44775;51.564;5.460;2022-10-30T04:15:35;19.60;;;10.45;;
58472;SDS011;44775;51.564;5.460;2022-10-30T04:18:01;23.13;;;11.70;;
58472;SDS011;44775;51.564;5.460;2022-10-30T04:20:27;22.85;;;10.45;;
58472;SDS011;44775;51.564;5.460;2022-10-30T04:22:56;20.08;;;10.90;;
58472;SDS011;44775;51.564;5.460;2022-10-30T04:25:26;28.23;;;11.30;;
58472;SDS011;44775;51.564;5.460;2022-10-30T04:27:53;22.70;;;11.05;;
58472;SDS011;44775;51.564;5.460;2022-10-30T04:30:18;24.33;;;11.07;;
58472;SDS011;44775;51.564;5.460;2022-10-30T04:32:52;19.75;;;10.55;;
58472;SDS011;44775;51.564;5.460;2022-10-30T04:35:20;19.75;;;10.68;;
58472;SDS011;44775;51.564;5.460;2022-10-30T04:42:41;20.95;;;10.05;;
58472;SDS011;44775;51.564;5.460;2022-10-30T04:45:11;22.42;;;11.13;;
58472;SDS011;44775;51.564;5.460;2022-10-30T04:47:36;23.15;;;10.73;;
58472;SDS011;44775;51.564;5.460;2022-10-30T04:50:02;17.98;;;10.90;;
58472;SDS011;44775;51.564;5.460;2022-10-30T04:52:28;23.85;;;10.70;;
58472;SDS011;44775;51.564;5.460;2022-10-30T04:54:53;19.67;;;10.23;;
58472;SDS011;44775;51.564;5.460;2022-10-30T04:57:18;21.92;;;11.25;;
58472;SDS011;44775;51.564;5.460;2022-10-30T04:59:44;23.33;;;11.50;;
58472;SDS011;44775;51.564;5.460;2022-10-30T05:02:09;19.85;;;11.23;;
58472;SDS011;44775;51.564;5.460;2022-10-30T05:04:35;24.50;;;11.35;;
58472;SDS011;44775;51.564;5.460;2022-10-30T05:07:00;20.50;;;10.88;;
58472;SDS011;44775;51.564;5.460;2022-10-30T05:09:27;22.58;;;11.32;;
58472;SDS011;44775;51.564;5.460;2022-10-30T05:11:53;22.23;;;11.32;;
58472;SDS011;44775;51.564;5.460;2022-10-30T05:14:18;23.38;;;10.55;;
58472;SDS011;44775;51.564;5.460;2022-10-30T05:16:44;23.00;;;11.45;;
58472;SDS011;44775;51.564;5.460;2022-10-30T05:19:09;25.02;;;11.43;;
58472;SDS011;44775;51.564;5.460;2022-10-30T05:21:35;24.27;;;12.02;;
58472;SDS011;44775;51.564;5.460;2022-10-30T05:24:00;24.30;;;11.45;;
58472;SDS011;44775;51.564;5.460;2022-10-30T05:26:26;21.83;;;12.02;;
58472;SDS011;44775;51.564;5.460;2022-10-30T05:28:51;23.05;;;11.70;;
58472;SDS011;44775;51.564;5.460;2022-10-30T05:31:17;26.35;;;11.77;;
58472;SDS011;44775;51.564;5.460;2022-10-30T05:33:42;21.98;;;11.18;;
58472;SDS011;44775;51.564;5.460;2022-10-30T05:36:08;21.45;;;11.27;;
58472;SDS011;44775;51.564;5.460;2022-10-30T05:38:33;24.20;;;11.48;;
58472;SDS011;44775;51.564;5.460;2022-10-30T05:40:59;20.88;;;10.98;;
58472;SDS011;44775;51.564;5.460;2022-10-30T05:43:24;20.60;;;11.68;;
58472;SDS011;44775;51.564;5.460;2022-10-30T05:45:49;23.02;;;11.35;;
58472;SDS011;44775;51.564;5.460;2022-10-30T05:48:15;23.60;;;11.88;;
58472;SDS011;44775;51.564;5.460;2022-10-30T05:50:40;22.45;;;12.10;;
58472;SDS011;44775;51.564;5.460;2022-10-30T05:53:06;22.42;;;11.65;;
58472;SDS011;44775;51.564;5.460;2022-10-30T05:55:32;22.60;;;11.50;;
58472;SDS011;44775;51.564;5.460;2022-10-30T05:57:58;23.48;;;11.95;;
58472;SDS011;44775;51.564;5.460;2022-10-30T06:00:25;19.13;;;10.73;;
58472;SDS011;44775;51.564;5.460;2022-10-30T06:02:57;23.92;;;11.95;;
58472;SDS011;44775;51.564;5.460;2022-10-30T06:05:23;22.48;;;12.38;;
58472;SDS011;44775;51.564;5.460;2022-10-30T06:07:48;29.23;;;11.95;;
58472;SDS011;44775;51.564;5.460;2022-10-30T06:10:14;25.30;;;13.18;;
58472;SDS011;44775;51.564;5.460;2022-10-30T06:12:39;24.90;;;12.25;;
58472;SDS011;44775;51.564;5.460;2022-10-30T06:15:05;21.88;;;12.23;;
58472;SDS011;44775;51.564;5.460;2022-10-30T06:17:31;21.00;;;11.98;;
58472;SDS011;44775;51.564;5.460;2022-10-30T06:19:56;21.27;;;12.35;;
58472;SDS011;44775;51.564;5.460;2022-10-30T06:22:22;26.73;;;12.70;;
58472;SDS011;44775;51.564;5.460;2022-10-30T06:24:47;27.80;;;13.23;;
58472;SDS011;44775;51.564;5.460;2022-10-30T06:27:13;25.80;;;13.25;;
58472;SDS011;44775;51.564;5.460;2022-10-30T06:29:38;24.90;;;14.00;;
58472;SDS011;44775;51.564;5.460;2022-10-30T06:32:03;30.63;;;14.50;;
58472;SDS011;44775;51.564;5.460;2022-10-30T06:34:29;24.67;;;14.65;;
58472;SDS011;44775;51.564;5.460;2022-10-30T06:36:54;33.75;;;14.23;;
58472;SDS011;44775;51.564;5.460;2022-10-30T06:39:20;28.02;;;14.38;;
58472;SDS011;44775;51.564;5.460;2022-10-30T06:41:45;28.50;;;15.32;;
58472;SDS011;44775;51.564;5.460;2022-10-30T06:44:11;30.20;;;15.35;;
58472;SDS011;44775;51.564;5.460;2022-10-30T06:46:36;29.27;;;15.68;;
58472;SDS011;44775;51.564;5.460;2022-10-30T06:49:02;33.17;;;15.82;;
58472;SDS011;44775;51.564;5.460;2022-10-30T06:51:27;33.03;;;16.02;;
58472;SDS011;44775;51.564;5.460;2022-10-30T06:53:52;27.30;;;16.30;;
58472;SDS011;44775;51.564;5.460;2022-10-30T06:56:18;28.42;;;16.15;;
58472;SDS011;44775;51.564;5.460;2022-10-30T06:58:43;28.38;;;16.90;;
58472;SDS011;44775;51.564;5.460;2022-10-30T07:01:09;31.65;;;17.30;;
58472;SDS011;44775;51.564;5.460;2022-10-30T07:03:35;31.17;;;16.17;;
58472;SDS011;44775;51.564;5.460;2022-10-30T07:06:00;30.65;;;16.38;;
58472;SDS011;44775;51.564;5.460;2022-10-30T07:08:26;28.52;;;16.33;;
58472;SDS011;44775;51.564;5.460;2022-10-30T07:10:52;33.80;;;18.55;;
58472;SDS011;44775;51.564;5.460;2022-10-30T07:13:20;39.83;;;16.67;;
58472;SDS011;44775;51.564;5.460;2022-10-30T07:15:46;33.08;;;17.20;;
58472;SDS011;44775;51.564;5.460;2022-10-30T07:18:11;30.35;;;16.30;;
58472;SDS011;44775;51.564;5.460;2022-10-30T07:20:37;31.85;;;16.80;;
58472;SDS011;44775;51.564;5.460;2022-10-30T07:23:02;31.98;;;17.20;;
58472;SDS011;44775;51.564;5.460;2022-10-30T07:25:28;26.52;;;15.70;;
58472;SDS011;44775;51.564;5.460;2022-10-30T07:27:54;30.45;;;15.85;;
58472;SDS011;44775;51.564;5.460;2022-10-30T07:30:21;34.15;;;16.15;;
58472;SDS011;44775;51.564;5.460;2022-10-30T07:32:58;31.30;;;15.67;;
58472;SDS011;44775;51.564;5.460;2022-10-30T07:35:24;23.17;;;15.45;;
58472;SDS011;44775;51.564;5.460;2022-10-30T07:37:50;24.83;;;14.38;;
58472;SDS011;44775;51.564;5.460;2022-10-30T07:40:15;21.70;;;13.43;;
58472;SDS011;44775;51.564;5.460;2022-10-30T07:42:41;26.42;;;14.18;;
58472;SDS011;44775;51.564;5.460;2022-10-30T07:45:07;27.92;;;14.27;;
58472;SDS011;44775;51.564;5.460;2022-10-30T07:47:32;23.85;;;14.88;;
58472;SDS011;44775;51.564;5.460;2022-10-30T07:50:03;27.25;;;15.25;;
58472;SDS011;44775;51.564;5.460;2022-10-30T07:52:32;26.98;;;15.35;;
58472;SDS011;44775;51.564;5.460;2022-10-30T07:54:58;28.38;;;16.10;;
58472;SDS011;44775;51.564;5.460;2022-10-30T07:57:23;29.50;;;15.27;;
58472;SDS011;44775;51.564;5.460;2022-10-30T07:59:48;28.50;;;14.63;;
58472;SDS011;44775;51.564;5.460;2022-10-30T08:02:14;21.33;;;14.70;;
58472;SDS011;44775;51.564;5.460;2022-10-30T08:04:39;31.23;;;16.58;;
58472;SDS011;44775;51.564;5.460;2022-10-30T08:07:05;27.73;;;16.00;;
58472;SDS011;44775;51.564;5.460;2022-10-30T08:09:30;31.40;;;17.33;;
58472;SDS011;44775;51.564;5.460;2022-10-30T08:11:56;29.25;;;15.95;;
58472;SDS011;44775;51.564;5.460;2022-10-30T08:14:21;24.85;;;15.85;;
58472;SDS011;44775;51.564;5.460;2022-10-30T08:16:46;25.95;;;14.57;;
58472;SDS011;44775;51.564;5.460;2022-10-30T08:19:12;24.17;;;14.55;;
58472;SDS011;44775;51.564;5.460;2022-10-30T08:21:37;24.00;;;14.30;;
58472;SDS011;44775;51.564;5.460;2022-10-30T08:24:03;23.50;;;14.52;;
58472;SDS011;44775;51.564;5.460;2022-10-30T08:26:28;25.73;;;14.68;;
58472;SDS011;44775;51.564;5.460;2022-10-30T08:28:54;22.42;;;14.18;;
58472;SDS011;44775;51.564;5.460;2022-10-30T08:31:19;24.05;;;14.02;;
58472;SDS011;44775;51.564;5.460;2022-10-30T08:33:45;22.25;;;12.68;;
58472;SDS011;44775;51.564;5.460;2022-10-30T08:36:10;21.98;;;14.15;;
58472;SDS011;44775;51.564;5.460;2022-10-30T08:38:36;21.13;;;13.50;;
58472;SDS011;44775;51.564;5.460;2022-10-30T08:41:01;19.92;;;11.35;;
58472;SDS011;44775;51.564;5.460;2022-10-30T08:43:27;22.85;;;9.90;;
58472;SDS011;44775;51.564;5.460;2022-10-30T08:45:52;17.55;;;9.90;;
58472;SDS011;44775;51.564;5.460;2022-10-30T08:48:17;15.90;;;9.50;;
58472;SDS011;44775;51.564;5.460;2022-10-30T08:50:43;14.68;;;9.40;;
58472;SDS011;44775;51.564;5.460;2022-10-30T08:53:12;19.33;;;9.32;;
58472;SDS011;44775;51.564;5.460;2022-10-30T08:55:39;16.77;;;9.05;;
58472;SDS011;44775;51.564;5.460;2022-10-30T08:58:05;17.35;;;8.93;;
58472;SDS011;44775;51.564;5.460;2022-10-30T09:00:30;15.95;;;8.75;;
58472;SDS011;44775;51.564;5.460;2022-10-30T09:02:56;17.92;;;9.07;;
58472;SDS011;44775;51.564;5.460;2022-10-30T09:05:21;18.98;;;9.43;;
58472;SDS011;44775;51.564;5.460;2022-10-30T09:07:47;16.75;;;8.10;;
58472;SDS011;44775;51.564;5.460;2022-10-30T09:10:13;18.05;;;8.10;;
58472;SDS011;44775;51.564;5.460;2022-10-30T09:12:38;17.35;;;8.07;;
58472;SDS011;44775;51.564;5.460;2022-10-30T09:15:05;16.92;;;8.02;;
58472;SDS011;44775;51.564;5.460;2022-10-30T09:17:31;20.48;;;8.07;;
58472;SDS011;44775;51.564;5.460;2022-10-30T09:19:57;16.23;;;7.60;;
58472;SDS011;44775;51.564;5.460;2022-10-30T09:22:22;17.55;;;8.20;;
58472;SDS011;44775;51.564;5.460;2022-10-30T09:24:48;14.80;;;8.05;;
58472;SDS011;44775;51.564;5.460;2022-10-30T09:27:13;16.00;;;7.80;;
58472;SDS011;44775;51.564;5.460;2022-10-30T09:29:39;15.18;;;7.47;;
58472;SDS011;44775;51.564;5.460;2022-10-30T09:32:05;14.23;;;7.38;;
58472;SDS011;44775;51.564;5.460;2022-10-30T09:34:34;14.82;;;8.02;;
58472;SDS011;44775;51.564;5.460;2022-10-30T09:37:02;16.88;;;7.85;;
58472;SDS011;44775;51.564;5.460;2022-10-30T09:39:28;14.73;;;7.90;;
58472;SDS011;44775;51.564;5.460;2022-10-30T09:53:38;20.60;;;8.15;;
58472;SDS011;44775;51.564;5.460;2022-10-30T10:01:39;18.65;;;7.90;;
58472;SDS011;44775;51.564;5.460;2022-10-30T10:06:53;21.83;;;7.70;;
58472;SDS011;44775;51.564;5.460;2022-10-30T10:09:28;14.27;;;7.35;;
58472;SDS011;44775;51.564;5.460;2022-10-30T10:11:58;15.70;;;6.97;;
58472;SDS011;44775;51.564;5.460;2022-10-30T10:14:44;14.90;;;7.28;;
58472;SDS011;44775;51.564;5.460;2022-10-30T10:17:14;16.25;;;6.97;;
58472;SDS011;44775;51.564;5.460;2022-10-30T10:19:51;13.23;;;6.57;;
58472;SDS011;44775;51.564;5.460;2022-10-30T10:22:25;16.63;;;6.50;;
58472;SDS011;44775;51.564;5.460;2022-10-30T10:24:56;15.02;;;7.32;;
58472;SDS011;44775;51.564;5.460;2022-10-30T10:29:57;15.57;;;5.97;;
58472;SDS011;44775;51.564;5.460;2022-10-30T10:35:29;15.23;;;6.20;;
58472;SDS011;44775;51.564;5.460;2022-10-30T10:53:00;18.48;;;6.32;;
58472;SDS011;44775;51.564;5.460;2022-10-30T10:55:32;16.27;;;6.35;;
58472;SDS011;44775;51.564;5.460;2022-10-30T10:58:04;14.38;;;5.97;;
58472;SDS011;44775;51.564;5.460;2022-10-30T11:00:37;13.13;;;5.60;;
58472;SDS011;44775;51.564;5.460;2022-10-30T11:03:08;14.73;;;5.63;;
58472;SDS011;44775;51.564;5.460;2022-10-30T11:05:59;16.23;;;5.85;;
58472;SDS011;44775;51.564;5.460;2022-10-30T11:08:36;17.17;;;6.07;;
58472;SDS011;44775;51.564;5.460;2022-10-30T11:11:03;15.43;;;6.03;;
58472;SDS011;44775;51.564;5.460;2022-10-30T11:13:30;14.77;;;5.70;;
58472;SDS011;44775;51.564;5.460;2022-10-30T11:18:40;13.70;;;5.57;;
58472;SDS011;44775;51.564;5.460;2022-10-30T11:21:08;16.95;;;5.75;;
58472;SDS011;44775;51.564;5.460;2022-10-30T11:23:38;16.40;;;5.97;;
58472;SDS011;44775;51.564;5.460;2022-10-30T11:31:29;12.38;;;5.15;;
58472;SDS011;44775;51.564;5.460;2022-10-30T11:34:19;12.23;;;5.47;;
58472;SDS011;44775;51.564;5.460;2022-10-30T11:36:55;13.05;;;5.35;;
58472;SDS011;44775;51.564;5.460;2022-10-30T11:39:22;14.90;;;5.60;;
58472;SDS011;44775;51.564;5.460;2022-10-30T11:44:37;16.42;;;5.70;;
58472;SDS011;44775;51.564;5.460;2022-10-30T11:47:07;15.38;;;5.82;;
58472;SDS011;44775;51.564;5.460;2022-10-30T11:49:37;13.77;;;5.55;;
58472;SDS011;44775;51.564;5.460;2022-10-30T11:52:12;11.50;;;5.20;;
58472;SDS011;44775;51.564;5.460;2022-10-30T11:54:42;15.55;;;5.15;;
58472;SDS011;44775;51.564;5.460;2022-10-30T11:57:31;12.18;;;5.50;;
58472;SDS011;44775;51.564;5.460;2022-10-30T12:00:02;14.25;;;5.50;;
58472;SDS011;44775;51.564;5.460;2022-10-30T12:02:38;16.85;;;5.40;;
58472;SDS011;44775;51.564;5.460;2022-10-30T12:05:50;12.65;;;5.55;;
58472;SDS011;44775;51.564;5.460;2022-10-30T12:10:31;15.07;;;5.72;;
58472;SDS011;44775;51.564;5.460;2022-10-30T12:13:14;13.90;;;5.53;;
58472;SDS011;44775;51.564;5.460;2022-10-30T12:15:41;17.60;;;6.10;;
58472;SDS011;44775;51.564;5.460;2022-10-30T12:18:16;11.25;;;5.72;;
58472;SDS011;44775;51.564;5.460;2022-10-30T12:20:51;18.17;;;5.72;;
58472;SDS011;44775;51.564;5.460;2022-10-30T12:23:19;13.93;;;5.90;;
58472;SDS011;44775;51.564;5.460;2022-10-30T12:25:50;15.45;;;6.13;;
58472;SDS011;44775;51.564;5.460;2022-10-30T12:28:19;14.10;;;6.15;;
58472;SDS011;44775;51.564;5.460;2022-10-30T12:33:24;15.10;;;6.28;;
58472;SDS011;44775;51.564;5.460;2022-10-30T12:35:56;17.05;;;6.90;;
58472;SDS011;44775;51.564;5.460;2022-10-30T12:38:27;16.38;;;6.30;;
58472;SDS011;44775;51.564;5.460;2022-10-30T12:40:59;11.02;;;6.25;;
58472;SDS011;44775;51.564;5.460;2022-10-30T12:43:30;17.95;;;6.45;;
58472;SDS011;44775;51.564;5.460;2022-10-30T12:48:52;19.40;;;6.47;;
58472;SDS011;44775;51.564;5.460;2022-10-30T12:51:31;21.40;;;6.70;;
58472;SDS011;44775;51.564;5.460;2022-10-30T12:54:20;15.45;;;6.30;;
58472;SDS011;44775;51.564;5.460;2022-10-30T12:57:59;17.92;;;6.90;;
58472;SDS011;44775;51.564;5.460;2022-10-30T13:02:39;15.93;;;5.60;;
58472;SDS011;44775;51.564;5.460;2022-10-30T13:10:43;15.93;;;5.93;;
58472;SDS011;44775;51.564;5.460;2022-10-30T13:15:48;18.10;;;6.05;;
58472;SDS011;44775;51.564;5.460;2022-10-30T13:18:17;14.98;;;5.90;;
58472;SDS011;44775;51.564;5.460;2022-10-30T13:21:31;18.13;;;6.10;;
58472;SDS011;44775;51.564;5.460;2022-10-30T13:23:50;15.77;;;5.72;;
58472;SDS011;44775;51.564;5.460;2022-10-30T13:26:25;15.30;;;5.72;;
58472;SDS011;44775;51.564;5.460;2022-10-30T13:31:29;14.10;;;5.30;;
58472;SDS011;44775;51.564;5.460;2022-10-30T13:36:45;17.92;;;6.25;;
58472;SDS011;44775;51.564;5.460;2022-10-30T13:45:00;13.52;;;5.43;;
58472;SDS011;44775;51.564;5.460;2022-10-30T13:47:37;16.80;;;6.45;;
58472;SDS011;44775;51.564;5.460;2022-10-30T13:52:51;16.23;;;6.05;;
58472;SDS011;44775;51.564;5.460;2022-10-30T13:55:22;16.00;;;5.70;;
58472;SDS011;44775;51.564;5.460;2022-10-30T14:03:11;15.98;;;6.00;;
58472;SDS011;44775;51.564;5.460;2022-10-30T14:05:49;18.20;;;6.75;;
58472;SDS011;44775;51.564;5.460;2022-10-30T14:08:34;15.30;;;6.95;;
58472;SDS011;44775;51.564;5.460;2022-10-30T14:11:00;19.90;;;8.02;;
58472;SDS011;44775;51.564;5.460;2022-10-30T14:19:02;13.00;;;6.20;;
58472;SDS011;44775;51.564;5.460;2022-10-30T14:21:30;16.83;;;6.25;;
58472;SDS011;44775;51.564;5.460;2022-10-30T14:31:53;13.43;;;5.32;;
58472;SDS011;44775;51.564;5.460;2022-10-30T14:37:07;18.70;;;5.80;;
58472;SDS011;44775;51.564;5.460;2022-10-30T14:39:42;18.90;;;5.50;;
58472;SDS011;44775;51.564;5.460;2022-10-30T14:50:32;12.25;;;5.57;;
58472;SDS011;44775;51.564;5.460;2022-10-30T14:59:07;17.88;;;6.15;;
58472;SDS011;44775;51.564;5.460;2022-10-30T15:04:26;14.68;;;5.93;;
58472;SDS011;44775;51.564;5.460;2022-10-30T15:07:31;15.00;;;5.22;;
58472;SDS011;44775;51.564;5.460;2022-10-30T15:16:01;15.85;;;5.50;;
58472;SDS011;44775;51.564;5.460;2022-10-30T15:18:29;15.25;;;5.82;;
58472;SDS011;44775;51.564;5.460;2022-10-30T15:20:55;16.83;;;6.00;;
58472;SDS011;44775;51.564;5.460;2022-10-30T15:23:29;18.65;;;5.63;;
58472;SDS011;44775;51.564;5.460;2022-10-30T15:25:59;12.75;;;5.20;;
58472;SDS011;44775;51.564;5.460;2022-10-30T15:28:32;13.85;;;5.45;;
58472;SDS011;44775;51.564;5.460;2022-10-30T15:31:06;15.45;;;5.72;;
58472;SDS011;44775;51.564;5.460;2022-10-30T15:33:45;18.42;;;5.80;;
58472;SDS011;44775;51.564;5.460;2022-10-30T15:36:17;16.40;;;5.40;;
58472;SDS011;44775;51.564;5.460;2022-10-30T15:38:43;15.85;;;5.30;;
58472;SDS011;44775;51.564;5.460;2022-10-30T15:41:09;16.17;;;5.68;;
58472;SDS011;44775;51.564;5.460;2022-10-30T15:43:36;11.48;;;5.50;;
58472;SDS011;44775;51.564;5.460;2022-10-30T15:46:09;19.50;;;6.40;;
58472;SDS011;44775;51.564;5.460;2022-10-30T15:48:36;17.00;;;6.57;;
58472;SDS011;44775;51.564;5.460;2022-10-30T15:51:06;16.52;;;7.40;;
58472;SDS011;44775;51.564;5.460;2022-10-30T15:56:32;20.98;;;6.93;;
58472;SDS011;44775;51.564;5.460;2022-10-30T15:59:02;17.17;;;6.97;;
58472;SDS011;44775;51.564;5.460;2022-10-30T16:01:30;16.70;;;6.97;;
58472;SDS011;44775;51.564;5.460;2022-10-30T16:03:58;18.30;;;6.68;;
58472;SDS011;44775;51.564;5.460;2022-10-30T16:06:28;17.35;;;6.88;;
58472;SDS011;44775;51.564;5.460;2022-10-30T16:08:55;17.85;;;7.00;;
58472;SDS011;44775;51.564;5.460;2022-10-30T16:11:21;21.27;;;7.30;;
58472;SDS011;44775;51.564;5.460;2022-10-30T16:13:48;22.70;;;7.80;;
58472;SDS011;44775;51.564;5.460;2022-10-30T16:16:21;18.60;;;7.88;;
58472;SDS011;44775;51.564;5.460;2022-10-30T16:18:51;20.17;;;8.85;;
58472;SDS011;44775;51.564;5.460;2022-10-30T16:21:22;17.48;;;9.73;;
58472;SDS011;44775;51.564;5.460;2022-10-30T16:23:49;23.00;;;10.10;;
58472;SDS011;44775;51.564;5.460;2022-10-30T16:28:53;22.15;;;10.00;;
58472;SDS011;44775;51.564;5.460;2022-10-30T16:31:19;20.58;;;9.88;;
58472;SDS011;44775;51.564;5.460;2022-10-30T16:33:45;17.00;;;9.23;;
58472;SDS011;44775;51.564;5.460;2022-10-30T16:36:12;19.10;;;9.50;;
58472;SDS011;44775;51.564;5.460;2022-10-30T16:38:41;21.27;;;9.45;;
58472;SDS011;44775;51.564;5.460;2022-10-30T16:41:07;20.02;;;8.23;;
58472;SDS011;44775;51.564;5.460;2022-10-30T16:43:38;15.20;;;9.32;;
58472;SDS011;44775;51.564;5.460;2022-10-30T16:48:40;20.60;;;7.13;;
58472;SDS011;44775;51.564;5.460;2022-10-30T16:51:16;13.52;;;7.13;;
58472;SDS011;44775;51.564;5.460;2022-10-30T16:53:46;13.75;;;5.68;;
58472;SDS011;44775;51.564;5.460;2022-10-30T16:56:33;12.48;;;4.70;;
58472;SDS011;44775;51.564;5.460;2022-10-30T16:59:11;11.10;;;4.18;;
58472;SDS011;44775;51.564;5.460;2022-10-30T17:01:39;10.57;;;3.47;;
58472;SDS011;44775;51.564;5.460;2022-10-30T17:04:04;11.35;;;3.47;;
58472;SDS011;44775;51.564;5.460;2022-10-30T17:08:56;9.20;;;3.47;;
58472;SDS011;44775;51.564;5.460;2022-10-30T17:11:34;7.97;;;3.35;;
58472;SDS011;44775;51.564;5.460;2022-10-30T17:14:03;9.63;;;3.60;;
58472;SDS011;44775;51.564;5.460;2022-10-30T17:16:39;11.98;;;4.28;;
58472;SDS011;44775;51.564;5.460;2022-10-30T17:21:55;8.75;;;4.20;;
58472;SDS011;44775;51.564;5.460;2022-10-30T17:24:24;9.82;;;4.05;;
58472;SDS011;44775;51.564;5.460;2022-10-30T17:26:56;8.60;;;3.65;;
58472;SDS011;44775;51.564;5.460;2022-10-30T17:32:05;10.68;;;4.10;;